sensor_id;sensor_type;location;lat;lon;timestamp;P1;durP1;ratioP1;P2;durP2;ratioP2
20697;SDS011;10508;50.956;4.640;2023-10-08T00:00:31;6.45;;;2.20;;
20697;SDS011;10508;50.956;4.640;2023-10-08T00:03:26;4.53;;;2.00;;
20697;SDS011;10508;50.956;4.640;2023-10-08T00:05:54;5.78;;;2.38;;
20697;SDS011;10508;50.956;4.640;2023-10-08T00:08:21;6.00;;;2.47;;
20697;SDS011;10508;50.956;4.640;2023-10-08T00:10:48;6.00;;;2.45;;
20697;SDS011;10508;50.956;4.640;2023-10-08T00:13:14;6.20;;;2.30;;
20697;SDS011;10508;50.956;4.640;2023-10-08T00:15:41;6.63;;;2.70;;
20697;SDS011;10508;50.956;4.640;2023-10-08T00:18:21;12.80;;;2.42;;
20697;SDS011;10508;50.956;4.640;2023-10-08T00:20:48;3.85;;;2.17;;
20697;SDS011;10508;50.956;4.640;2023-10-08T00:23:22;4.68;;;2.25;;
20697;SDS011;10508;50.956;4.640;2023-10-08T00:25:52;7.35;;;2.30;;
20697;SDS011;10508;50.956;4.640;2023-10-08T00:28:19;6.75;;;1.60;;
20697;SDS011;10508;50.956;4.640;2023-10-08T00:30:46;5.40;;;2.00;;
20697;SDS011;10508;50.956;4.640;2023-10-08T00:33:13;7.75;;;2.00;;
20697;SDS011;10508;50.956;4.640;2023-10-08T00:35:40;5.03;;;2.35;;
20697;SDS011;10508;50.956;4.640;2023-10-08T00:38:09;7.30;;;2.20;;
20697;SDS011;10508;50.956;4.640;2023-10-08T00:40:45;4.97;;;2.30;;
20697;SDS011;10508;50.956;4.640;2023-10-08T00:46:02;5.20;;;2.30;;
20697;SDS011;10508;50.956;4.640;2023-10-08T00:48:29;7.22;;;2.50;;
20697;SDS011;10508;50.956;4.640;2023-10-08T00:51:00;5.60;;;2.35;;
20697;SDS011;10508;50.956;4.640;2023-10-08T00:54:03;6.38;;;2.13;;
20697;SDS011;10508;50.956;4.640;2023-10-08T00:56:33;7.82;;;2.40;;
20697;SDS011;10508;50.956;4.640;2023-10-08T00:59:18;5.63;;;2.47;;
20697;SDS011;10508;50.956;4.640;2023-10-08T01:01:47;5.20;;;2.47;;
20697;SDS011;10508;50.956;4.640;2023-10-08T01:04:19;9.43;;;2.55;;
20697;SDS011;10508;50.956;4.640;2023-10-08T01:06:51;6.95;;;2.38;;
20697;SDS011;10508;50.956;4.640;2023-10-08T01:09:39;7.90;;;2.63;;
20697;SDS011;10508;50.956;4.640;2023-10-08T01:14:54;6.53;;;2.28;;
20697;SDS011;10508;50.956;4.640;2023-10-08T01:17:21;7.15;;;2.28;;
20697;SDS011;10508;50.956;4.640;2023-10-08T01:19:52;9.98;;;2.72;;
20697;SDS011;10508;50.956;4.640;2023-10-08T01:22:30;6.32;;;2.47;;
20697;SDS011;10508;50.956;4.640;2023-10-08T01:24:56;6.05;;;2.58;;
20697;SDS011;10508;50.956;4.640;2023-10-08T01:27:22;7.75;;;2.45;;
20697;SDS011;10508;50.956;4.640;2023-10-08T01:29:52;4.30;;;1.85;;
20697;SDS011;10508;50.956;4.640;2023-10-08T01:32:18;6.10;;;2.50;;
20697;SDS011;10508;50.956;4.640;2023-10-08T01:34:45;6.70;;;2.40;;
20697;SDS011;10508;50.956;4.640;2023-10-08T01:37:15;6.53;;;2.60;;
20697;SDS011;10508;50.956;4.640;2023-10-08T01:39:42;6.43;;;2.53;;
20697;SDS011;10508;50.956;4.640;2023-10-08T01:42:08;5.28;;;2.08;;
20697;SDS011;10508;50.956;4.640;2023-10-08T01:44:45;5.68;;;2.35;;
20697;SDS011;10508;50.956;4.640;2023-10-08T01:47:12;5.32;;;2.38;;
20697;SDS011;10508;50.956;4.640;2023-10-08T01:49:38;9.50;;;2.55;;
20697;SDS011;10508;50.956;4.640;2023-10-08T01:52:05;3.45;;;2.00;;
20697;SDS011;10508;50.956;4.640;2023-10-08T01:54:38;6.03;;;2.75;;
20697;SDS011;10508;50.956;4.640;2023-10-08T01:57:05;6.43;;;2.47;;
20697;SDS011;10508;50.956;4.640;2023-10-08T01:59:34;6.75;;;2.50;;
20697;SDS011;10508;50.956;4.640;2023-10-08T02:02:02;6.95;;;2.30;;
20697;SDS011;10508;50.956;4.640;2023-10-08T02:04:30;8.15;;;2.30;;
20697;SDS011;10508;50.956;4.640;2023-10-08T02:06:58;4.28;;;1.85;;
20697;SDS011;10508;50.956;4.640;2023-10-08T02:09:25;6.25;;;2.15;;
20697;SDS011;10508;50.956;4.640;2023-10-08T02:11:51;7.82;;;2.33;;
20697;SDS011;10508;50.956;4.640;2023-10-08T02:14:20;8.95;;;2.53;;
20697;SDS011;10508;50.956;4.640;2023-10-08T02:16:48;5.53;;;2.50;;
20697;SDS011;10508;50.956;4.640;2023-10-08T02:19:14;5.28;;;2.20;;
20697;SDS011;10508;50.956;4.640;2023-10-08T02:21:47;10.95;;;3.10;;
20697;SDS011;10508;50.956;4.640;2023-10-08T02:24:13;6.65;;;2.55;;
20697;SDS011;10508;50.956;4.640;2023-10-08T02:26:39;5.13;;;2.13;;
20697;SDS011;10508;50.956;4.640;2023-10-08T02:29:07;7.22;;;2.97;;
20697;SDS011;10508;50.956;4.640;2023-10-08T02:31:38;5.50;;;2.47;;
20697;SDS011;10508;50.956;4.640;2023-10-08T02:34:05;8.50;;;2.40;;
20697;SDS011;10508;50.956;4.640;2023-10-08T02:36:33;7.78;;;2.58;;
20697;SDS011;10508;50.956;4.640;2023-10-08T02:39:01;8.77;;;2.80;;
20697;SDS011;10508;50.956;4.640;2023-10-08T02:41:31;5.55;;;2.47;;
20697;SDS011;10508;50.956;4.640;2023-10-08T02:43:57;5.55;;;2.20;;
20697;SDS011;10508;50.956;4.640;2023-10-08T02:46:30;4.95;;;2.55;;
20697;SDS011;10508;50.956;4.640;2023-10-08T02:48:58;7.40;;;2.60;;
20697;SDS011;10508;50.956;4.640;2023-10-08T02:51:28;7.30;;;2.47;;
20697;SDS011;10508;50.956;4.640;2023-10-08T02:53:55;5.90;;;2.60;;
20697;SDS011;10508;50.956;4.640;2023-10-08T02:56:21;5.45;;;2.53;;
20697;SDS011;10508;50.956;4.640;2023-10-08T02:58:47;6.38;;;2.70;;
20697;SDS011;10508;50.956;4.640;2023-10-08T03:01:13;10.90;;;2.50;;
20697;SDS011;10508;50.956;4.640;2023-10-08T03:03:40;6.57;;;2.55;;
20697;SDS011;10508;50.956;4.640;2023-10-08T03:06:11;5.40;;;2.20;;
20697;SDS011;10508;50.956;4.640;2023-10-08T03:08:39;5.68;;;2.58;;
20697;SDS011;10508;50.956;4.640;2023-10-08T03:11:10;5.80;;;2.00;;
20697;SDS011;10508;50.956;4.640;2023-10-08T03:13:43;6.65;;;2.53;;
20697;SDS011;10508;50.956;4.640;2023-10-08T03:16:12;10.60;;;3.03;;
20697;SDS011;10508;50.956;4.640;2023-10-08T03:18:38;5.05;;;2.20;;
20697;SDS011;10508;50.956;4.640;2023-10-08T03:21:10;6.20;;;2.72;;
20697;SDS011;10508;50.956;4.640;2023-10-08T03:23:46;8.15;;;2.83;;
20697;SDS011;10508;50.956;4.640;2023-10-08T03:26:23;17.92;;;2.30;;
20697;SDS011;10508;50.956;4.640;2023-10-08T03:28:55;6.28;;;2.85;;
20697;SDS011;10508;50.956;4.640;2023-10-08T03:31:25;9.15;;;2.58;;
20697;SDS011;10508;50.956;4.640;2023-10-08T03:34:15;5.50;;;2.47;;
20697;SDS011;10508;50.956;4.640;2023-10-08T03:36:43;7.10;;;3.08;;
20697;SDS011;10508;50.956;4.640;2023-10-08T03:39:10;10.10;;;2.80;;
20697;SDS011;10508;50.956;4.640;2023-10-08T03:41:38;8.55;;;2.70;;
20697;SDS011;10508;50.956;4.640;2023-10-08T03:44:05;5.20;;;2.70;;
20697;SDS011;10508;50.956;4.640;2023-10-08T03:46:35;5.40;;;2.20;;
20697;SDS011;10508;50.956;4.640;2023-10-08T03:49:08;5.45;;;2.33;;
20697;SDS011;10508;50.956;4.640;2023-10-08T03:51:59;7.28;;;2.33;;
20697;SDS011;10508;50.956;4.640;2023-10-08T03:54:25;5.65;;;2.70;;
20697;SDS011;10508;50.956;4.640;2023-10-08T03:57:01;8.43;;;2.50;;
20697;SDS011;10508;50.956;4.640;2023-10-08T03:59:30;6.70;;;2.40;;
20697;SDS011;10508;50.956;4.640;2023-10-08T04:01:57;4.53;;;2.20;;
20697;SDS011;10508;50.956;4.640;2023-10-08T04:04:28;4.93;;;2.33;;
20697;SDS011;10508;50.956;4.640;2023-10-08T04:07:15;6.22;;;2.42;;
20697;SDS011;10508;50.956;4.640;2023-10-08T04:10:00;8.20;;;2.70;;
20697;SDS011;10508;50.956;4.640;2023-10-08T04:12:35;6.88;;;2.17;;
20697;SDS011;10508;50.956;4.640;2023-10-08T04:15:09;6.55;;;2.15;;
20697;SDS011;10508;50.956;4.640;2023-10-08T04:17:37;5.47;;;2.30;;
20697;SDS011;10508;50.956;4.640;2023-10-08T04:20:13;6.05;;;2.60;;
20697;SDS011;10508;50.956;4.640;2023-10-08T04:23:04;6.55;;;2.85;;
20697;SDS011;10508;50.956;4.640;2023-10-08T04:25:30;8.88;;;2.63;;
20697;SDS011;10508;50.956;4.640;2023-10-08T04:27:57;5.85;;;2.67;;
20697;SDS011;10508;50.956;4.640;2023-10-08T04:30:27;4.30;;;2.00;;
20697;SDS011;10508;50.956;4.640;2023-10-08T04:33:00;6.88;;;2.42;;
20697;SDS011;10508;50.956;4.640;2023-10-08T04:35:31;7.57;;;2.70;;
20697;SDS011;10508;50.956;4.640;2023-10-08T04:38:01;9.85;;;3.28;;
20697;SDS011;10508;50.956;4.640;2023-10-08T04:40:28;7.05;;;2.38;;
20697;SDS011;10508;50.956;4.640;2023-10-08T04:42:59;11.02;;;2.80;;
20697;SDS011;10508;50.956;4.640;2023-10-08T04:45:27;8.65;;;2.90;;
20697;SDS011;10508;50.956;4.640;2023-10-08T04:47:59;9.32;;;3.00;;
20697;SDS011;10508;50.956;4.640;2023-10-08T04:50:25;9.40;;;2.38;;
20697;SDS011;10508;50.956;4.640;2023-10-08T04:52:55;7.10;;;2.70;;
20697;SDS011;10508;50.956;4.640;2023-10-08T04:55:26;5.10;;;2.45;;
20697;SDS011;10508;50.956;4.640;2023-10-08T04:57:56;5.85;;;2.97;;
20697;SDS011;10508;50.956;4.640;2023-10-08T05:00:23;7.15;;;2.42;;
20697;SDS011;10508;50.956;4.640;2023-10-08T05:03:07;10.90;;;2.55;;
20697;SDS011;10508;50.956;4.640;2023-10-08T05:05:42;8.07;;;2.92;;
20697;SDS011;10508;50.956;4.640;2023-10-08T05:08:33;9.38;;;2.83;;
20697;SDS011;10508;50.956;4.640;2023-10-08T05:11:13;6.82;;;2.60;;
20697;SDS011;10508;50.956;4.640;2023-10-08T05:13:58;6.03;;;2.88;;
20697;SDS011;10508;50.956;4.640;2023-10-08T05:16:47;8.75;;;3.05;;
20697;SDS011;10508;50.956;4.640;2023-10-08T05:19:28;8.38;;;3.05;;
20697;SDS011;10508;50.956;4.640;2023-10-08T05:22:09;9.15;;;2.80;;
20697;SDS011;10508;50.956;4.640;2023-10-08T05:24:53;7.63;;;2.70;;
20697;SDS011;10508;50.956;4.640;2023-10-08T05:27:42;13.93;;;3.42;;
20697;SDS011;10508;50.956;4.640;2023-10-08T05:30:14;5.65;;;2.58;;
20697;SDS011;10508;50.956;4.640;2023-10-08T05:32:44;6.82;;;2.80;;
20697;SDS011;10508;50.956;4.640;2023-10-08T05:35:32;15.15;;;2.55;;
20697;SDS011;10508;50.956;4.640;2023-10-08T05:40:52;7.68;;;3.05;;
20697;SDS011;10508;50.956;4.640;2023-10-08T05:43:21;10.10;;;3.13;;
20697;SDS011;10508;50.956;4.640;2023-10-08T05:46:15;5.10;;;2.20;;
20697;SDS011;10508;50.956;4.640;2023-10-08T05:49:04;8.00;;;3.13;;
20697;SDS011;10508;50.956;4.640;2023-10-08T05:51:30;9.65;;;3.33;;
20697;SDS011;10508;50.956;4.640;2023-10-08T05:54:16;10.80;;;3.17;;
20697;SDS011;10508;50.956;4.640;2023-10-08T05:56:55;10.18;;;3.25;;
20697;SDS011;10508;50.956;4.640;2023-10-08T05:59:30;12.85;;;3.55;;
20697;SDS011;10508;50.956;4.640;2023-10-08T06:02:06;10.23;;;3.08;;
20697;SDS011;10508;50.956;4.640;2023-10-08T06:04:53;7.40;;;3.67;;
20697;SDS011;10508;50.956;4.640;2023-10-08T06:07:45;12.40;;;2.88;;
20697;SDS011;10508;50.956;4.640;2023-10-08T06:10:21;6.10;;;2.80;;
20697;SDS011;10508;50.956;4.640;2023-10-08T06:13:12;7.72;;;2.60;;
20697;SDS011;10508;50.956;4.640;2023-10-08T06:15:51;8.07;;;2.65;;
20697;SDS011;10508;50.956;4.640;2023-10-08T06:18:21;13.73;;;3.38;;
20697;SDS011;10508;50.956;4.640;2023-10-08T06:20:54;7.72;;;2.97;;
20697;SDS011;10508;50.956;4.640;2023-10-08T06:23:21;8.32;;;3.20;;
20697;SDS011;10508;50.956;4.640;2023-10-08T06:25:48;8.48;;;3.15;;
20697;SDS011;10508;50.956;4.640;2023-10-08T06:28:30;9.77;;;3.15;;
20697;SDS011;10508;50.956;4.640;2023-10-08T06:30:58;11.32;;;3.20;;
20697;SDS011;10508;50.956;4.640;2023-10-08T06:33:24;9.15;;;3.15;;
20697;SDS011;10508;50.956;4.640;2023-10-08T06:35:55;9.18;;;3.03;;
20697;SDS011;10508;50.956;4.640;2023-10-08T06:38:47;8.30;;;3.25;;
20697;SDS011;10508;50.956;4.640;2023-10-08T06:41:16;9.80;;;3.40;;
20697;SDS011;10508;50.956;4.640;2023-10-08T06:43:49;10.07;;;3.42;;
20697;SDS011;10508;50.956;4.640;2023-10-08T06:46:27;8.52;;;3.25;;
20697;SDS011;10508;50.956;4.640;2023-10-08T06:48:57;9.27;;;3.08;;
20697;SDS011;10508;50.956;4.640;2023-10-08T06:51:23;8.48;;;3.17;;
20697;SDS011;10508;50.956;4.640;2023-10-08T06:53:51;9.60;;;3.40;;
20697;SDS011;10508;50.956;4.640;2023-10-08T06:56:19;8.85;;;3.13;;
20697;SDS011;10508;50.956;4.640;2023-10-08T06:58:45;8.45;;;3.25;;
20697;SDS011;10508;50.956;4.640;2023-10-08T07:01:15;7.25;;;3.28;;
20697;SDS011;10508;50.956;4.640;2023-10-08T07:03:51;8.80;;;2.90;;
20697;SDS011;10508;50.956;4.640;2023-10-08T07:06:21;7.88;;;3.28;;
20697;SDS011;10508;50.956;4.640;2023-10-08T07:08:57;8.80;;;3.42;;
20697;SDS011;10508;50.956;4.640;2023-10-08T07:11:24;7.15;;;3.05;;
20697;SDS011;10508;50.956;4.640;2023-10-08T07:13:51;9.88;;;3.08;;
20697;SDS011;10508;50.956;4.640;2023-10-08T07:16:18;7.80;;;3.42;;
20697;SDS011;10508;50.956;4.640;2023-10-08T07:18:46;7.13;;;2.67;;
20697;SDS011;10508;50.956;4.640;2023-10-08T07:21:16;6.68;;;2.88;;
20697;SDS011;10508;50.956;4.640;2023-10-08T07:23:43;6.75;;;3.17;;
20697;SDS011;10508;50.956;4.640;2023-10-08T07:26:35;9.00;;;3.67;;
20697;SDS011;10508;50.956;4.640;2023-10-08T07:29:01;6.15;;;3.03;;
20697;SDS011;10508;50.956;4.640;2023-10-08T07:31:35;9.48;;;3.33;;
20697;SDS011;10508;50.956;4.640;2023-10-08T07:34:02;9.70;;;3.30;;
20697;SDS011;10508;50.956;4.640;2023-10-08T07:36:49;7.72;;;3.22;;
20697;SDS011;10508;50.956;4.640;2023-10-08T07:39:19;11.35;;;3.10;;
20697;SDS011;10508;50.956;4.640;2023-10-08T07:41:51;9.38;;;3.20;;
20697;SDS011;10508;50.956;4.640;2023-10-08T07:44:19;7.72;;;2.60;;
20697;SDS011;10508;50.956;4.640;2023-10-08T07:46:48;10.02;;;3.83;;
20697;SDS011;10508;50.956;4.640;2023-10-08T07:49:14;17.65;;;4.03;;
20697;SDS011;10508;50.956;4.640;2023-10-08T07:51:40;5.85;;;2.50;;
20697;SDS011;10508;50.956;4.640;2023-10-08T07:54:06;10.05;;;3.10;;
20697;SDS011;10508;50.956;4.640;2023-10-08T07:56:36;6.70;;;3.13;;
20697;SDS011;10508;50.956;4.640;2023-10-08T07:59:02;11.88;;;3.50;;
20697;SDS011;10508;50.956;4.640;2023-10-08T08:01:34;10.57;;;3.53;;
20697;SDS011;10508;50.956;4.640;2023-10-08T08:04:02;15.35;;;3.22;;
20697;SDS011;10508;50.956;4.640;2023-10-08T08:06:28;6.20;;;3.03;;
20697;SDS011;10508;50.956;4.640;2023-10-08T08:08:56;12.43;;;3.38;;
20697;SDS011;10508;50.956;4.640;2023-10-08T08:11:22;7.82;;;2.80;;
20697;SDS011;10508;50.956;4.640;2023-10-08T08:13:51;8.57;;;3.00;;
20697;SDS011;10508;50.956;4.640;2023-10-08T08:16:17;7.10;;;3.00;;
20697;SDS011;10508;50.956;4.640;2023-10-08T08:18:46;7.70;;;3.38;;
20697;SDS011;10508;50.956;4.640;2023-10-08T08:21:13;5.55;;;2.67;;
20697;SDS011;10508;50.956;4.640;2023-10-08T08:23:43;12.18;;;3.40;;
20697;SDS011;10508;50.956;4.640;2023-10-08T08:26:16;7.45;;;3.35;;
20697;SDS011;10508;50.956;4.640;2023-10-08T08:28:55;8.25;;;3.40;;
20697;SDS011;10508;50.956;4.640;2023-10-08T08:31:22;11.98;;;3.55;;
20697;SDS011;10508;50.956;4.640;2023-10-08T08:33:50;8.48;;;2.97;;
20697;SDS011;10508;50.956;4.640;2023-10-08T08:36:22;11.95;;;3.70;;
20697;SDS011;10508;50.956;4.640;2023-10-08T08:38:48;10.45;;;3.38;;
20697;SDS011;10508;50.956;4.640;2023-10-08T08:41:15;6.97;;;3.42;;
20697;SDS011;10508;50.956;4.640;2023-10-08T08:43:49;8.77;;;3.03;;
20697;SDS011;10508;50.956;4.640;2023-10-08T08:46:22;11.93;;;3.40;;
20697;SDS011;10508;50.956;4.640;2023-10-08T08:48:49;12.63;;;3.50;;
20697;SDS011;10508;50.956;4.640;2023-10-08T08:51:18;9.55;;;3.67;;
20697;SDS011;10508;50.956;4.640;2023-10-08T08:53:45;11.05;;;3.75;;
20697;SDS011;10508;50.956;4.640;2023-10-08T08:56:11;7.68;;;2.92;;
20697;SDS011;10508;50.956;4.640;2023-10-08T08:58:38;9.23;;;3.28;;
20697;SDS011;10508;50.956;4.640;2023-10-08T09:01:06;10.00;;;4.07;;
20697;SDS011;10508;50.956;4.640;2023-10-08T09:03:34;7.75;;;3.53;;
20697;SDS011;10508;50.956;4.640;2023-10-08T09:06:02;10.60;;;4.07;;
20697;SDS011;10508;50.956;4.640;2023-10-08T09:08:33;9.20;;;3.28;;
20697;SDS011;10508;50.956;4.640;2023-10-08T09:10:59;10.73;;;3.95;;
20697;SDS011;10508;50.956;4.640;2023-10-08T09:13:26;11.88;;;4.57;;
20697;SDS011;10508;50.956;4.640;2023-10-08T09:15:57;10.68;;;4.47;;
20697;SDS011;10508;50.956;4.640;2023-10-08T09:18:23;14.45;;;3.75;;
20697;SDS011;10508;50.956;4.640;2023-10-08T09:20:52;10.90;;;3.70;;
20697;SDS011;10508;50.956;4.640;2023-10-08T09:23:20;8.80;;;3.25;;
20697;SDS011;10508;50.956;4.640;2023-10-08T09:25:47;12.05;;;4.18;;
20697;SDS011;10508;50.956;4.640;2023-10-08T09:28:24;14.98;;;4.80;;
20697;SDS011;10508;50.956;4.640;2023-10-08T09:31:10;7.50;;;3.13;;
20697;SDS011;10508;50.956;4.640;2023-10-08T09:33:36;11.75;;;3.92;;
20697;SDS011;10508;50.956;4.640;2023-10-08T09:36:03;10.23;;;3.90;;
20697;SDS011;10508;50.956;4.640;2023-10-08T09:38:35;9.82;;;3.50;;
20697;SDS011;10508;50.956;4.640;2023-10-08T09:41:02;13.90;;;4.85;;
20697;SDS011;10508;50.956;4.640;2023-10-08T09:43:31;13.27;;;4.15;;
20697;SDS011;10508;50.956;4.640;2023-10-08T09:46:18;11.60;;;4.07;;
20697;SDS011;10508;50.956;4.640;2023-10-08T09:48:51;14.07;;;4.25;;
20697;SDS011;10508;50.956;4.640;2023-10-08T09:51:20;11.32;;;4.45;;
20697;SDS011;10508;50.956;4.640;2023-10-08T09:56:13;14.48;;;3.70;;
20697;SDS011;10508;50.956;4.640;2023-10-08T09:58:40;10.55;;;3.83;;
20697;SDS011;10508;50.956;4.640;2023-10-08T10:01:07;14.95;;;4.15;;
20697;SDS011;10508;50.956;4.640;2023-10-08T10:03:33;12.93;;;4.47;;
20697;SDS011;10508;50.956;4.640;2023-10-08T10:06:01;7.43;;;3.35;;
20697;SDS011;10508;50.956;4.640;2023-10-08T10:08:27;10.82;;;3.70;;
20697;SDS011;10508;50.956;4.640;2023-10-08T10:11:00;12.98;;;4.00;;
20697;SDS011;10508;50.956;4.640;2023-10-08T10:13:27;8.38;;;3.90;;
20697;SDS011;10508;50.956;4.640;2023-10-08T10:15:54;10.80;;;4.15;;
20697;SDS011;10508;50.956;4.640;2023-10-08T10:20:51;11.85;;;3.80;;
20697;SDS011;10508;50.956;4.640;2023-10-08T10:26:01;10.60;;;4.18;;
20697;SDS011;10508;50.956;4.640;2023-10-08T10:28:28;10.98;;;3.97;;
20697;SDS011;10508;50.956;4.640;2023-10-08T10:30:54;11.43;;;4.35;;
20697;SDS011;10508;50.956;4.640;2023-10-08T10:33:31;13.15;;;4.35;;
20697;SDS011;10508;50.956;4.640;2023-10-08T10:36:00;13.52;;;4.60;;
20697;SDS011;10508;50.956;4.640;2023-10-08T10:38:27;11.25;;;4.22;;
20697;SDS011;10508;50.956;4.640;2023-10-08T10:40:55;8.88;;;4.32;;
20697;SDS011;10508;50.956;4.640;2023-10-08T10:43:25;10.10;;;4.80;;
20697;SDS011;10508;50.956;4.640;2023-10-08T10:46:00;10.00;;;4.60;;
20697;SDS011;10508;50.956;4.640;2023-10-08T10:48:45;11.40;;;4.00;;
20697;SDS011;10508;50.956;4.640;2023-10-08T10:51:28;13.65;;;4.70;;
20697;SDS011;10508;50.956;4.640;2023-10-08T10:53:55;10.43;;;4.15;;
20697;SDS011;10508;50.956;4.640;2023-10-08T10:56:28;8.63;;;4.45;;
20697;SDS011;10508;50.956;4.640;2023-10-08T10:59:03;16.25;;;5.05;;
20697;SDS011;10508;50.956;4.640;2023-10-08T11:01:49;10.40;;;4.28;;
20697;SDS011;10508;50.956;4.640;2023-10-08T11:04:20;13.23;;;4.20;;
20697;SDS011;10508;50.956;4.640;2023-10-08T11:06:54;11.57;;;4.00;;
20697;SDS011;10508;50.956;4.640;2023-10-08T11:09:24;12.55;;;4.88;;
20697;SDS011;10508;50.956;4.640;2023-10-08T11:12:06;10.45;;;4.22;;
20697;SDS011;10508;50.956;4.640;2023-10-08T11:14:41;12.18;;;4.57;;
20697;SDS011;10508;50.956;4.640;2023-10-08T11:17:11;10.77;;;3.72;;
20697;SDS011;10508;50.956;4.640;2023-10-08T11:19:39;14.23;;;4.22;;
20697;SDS011;10508;50.956;4.640;2023-10-08T11:22:07;10.95;;;3.95;;
20697;SDS011;10508;50.956;4.640;2023-10-08T11:24:59;8.88;;;3.60;;
20697;SDS011;10508;50.956;4.640;2023-10-08T11:27:25;11.93;;;3.95;;
20697;SDS011;10508;50.956;4.640;2023-10-08T11:29:54;13.45;;;4.03;;
20697;SDS011;10508;50.956;4.640;2023-10-08T11:32:25;8.75;;;4.07;;
20697;SDS011;10508;50.956;4.640;2023-10-08T11:34:58;12.73;;;4.10;;
20697;SDS011;10508;50.956;4.640;2023-10-08T11:37:31;11.63;;;4.38;;
20697;SDS011;10508;50.956;4.640;2023-10-08T11:40:01;12.68;;;4.18;;
20697;SDS011;10508;50.956;4.640;2023-10-08T11:42:41;10.55;;;4.30;;
20697;SDS011;10508;50.956;4.640;2023-10-08T11:45:09;8.82;;;3.90;;
20697;SDS011;10508;50.956;4.640;2023-10-08T11:48:03;14.50;;;3.83;;
20697;SDS011;10508;50.956;4.640;2023-10-08T11:50:37;16.75;;;4.07;;
20697;SDS011;10508;50.956;4.640;2023-10-08T11:53:03;12.80;;;4.28;;
20697;SDS011;10508;50.956;4.640;2023-10-08T11:55:35;10.00;;;3.72;;
20697;SDS011;10508;50.956;4.640;2023-10-08T11:58:04;15.13;;;4.45;;
20697;SDS011;10508;50.956;4.640;2023-10-08T12:00:38;7.45;;;3.58;;
20697;SDS011;10508;50.956;4.640;2023-10-08T12:03:09;13.63;;;3.88;;
20697;SDS011;10508;50.956;4.640;2023-10-08T12:05:36;12.15;;;4.60;;
20697;SDS011;10508;50.956;4.640;2023-10-08T12:08:04;14.82;;;4.22;;
20697;SDS011;10508;50.956;4.640;2023-10-08T12:10:33;8.55;;;4.05;;
20697;SDS011;10508;50.956;4.640;2023-10-08T12:12:59;8.73;;;3.13;;
20697;SDS011;10508;50.956;4.640;2023-10-08T12:15:25;17.48;;;4.07;;
20697;SDS011;10508;50.956;4.640;2023-10-08T12:17:59;10.85;;;3.72;;
20697;SDS011;10508;50.956;4.640;2023-10-08T12:20:40;12.25;;;3.53;;
20697;SDS011;10508;50.956;4.640;2023-10-08T12:23:10;12.15;;;3.95;;
20697;SDS011;10508;50.956;4.640;2023-10-08T12:25:43;12.75;;;4.07;;
20697;SDS011;10508;50.956;4.640;2023-10-08T12:28:16;11.25;;;3.83;;
20697;SDS011;10508;50.956;4.640;2023-10-08T12:30:44;9.48;;;3.78;;
20697;SDS011;10508;50.956;4.640;2023-10-08T12:33:10;9.90;;;4.07;;
20697;SDS011;10508;50.956;4.640;2023-10-08T12:35:40;14.32;;;3.88;;
20697;SDS011;10508;50.956;4.640;2023-10-08T12:38:06;10.20;;;4.20;;
20697;SDS011;10508;50.956;4.640;2023-10-08T12:40:34;9.35;;;3.35;;
20697;SDS011;10508;50.956;4.640;2023-10-08T12:43:24;11.57;;;4.32;;
20697;SDS011;10508;50.956;4.640;2023-10-08T12:45:53;13.40;;;4.78;;
20697;SDS011;10508;50.956;4.640;2023-10-08T12:48:24;12.77;;;4.25;;
20697;SDS011;10508;50.956;4.640;2023-10-08T12:50:54;9.15;;;4.05;;
20697;SDS011;10508;50.956;4.640;2023-10-08T12:53:27;7.88;;;3.70;;
20697;SDS011;10508;50.956;4.640;2023-10-08T12:56:01;11.07;;;4.15;;
20697;SDS011;10508;50.956;4.640;2023-10-08T12:58:31;10.98;;;4.25;;
20697;SDS011;10508;50.956;4.640;2023-10-08T13:00:59;12.05;;;4.47;;
20697;SDS011;10508;50.956;4.640;2023-10-08T13:03:29;10.50;;;4.90;;
20697;SDS011;10508;50.956;4.640;2023-10-08T13:05:58;11.98;;;3.70;;
20697;SDS011;10508;50.956;4.640;2023-10-08T13:08:39;10.98;;;4.13;;
20697;SDS011;10508;50.956;4.640;2023-10-08T13:11:05;11.52;;;4.53;;
20697;SDS011;10508;50.956;4.640;2023-10-08T13:13:32;8.73;;;3.95;;
20697;SDS011;10508;50.956;4.640;2023-10-08T13:15:59;10.82;;;4.13;;
20697;SDS011;10508;50.956;4.640;2023-10-08T13:18:28;11.05;;;3.70;;
20697;SDS011;10508;50.956;4.640;2023-10-08T13:20:55;8.10;;;3.28;;
20697;SDS011;10508;50.956;4.640;2023-10-08T13:23:22;11.23;;;4.35;;
20697;SDS011;10508;50.956;4.640;2023-10-08T13:25:55;12.18;;;4.55;;
20697;SDS011;10508;50.956;4.640;2023-10-08T13:28:24;12.45;;;4.43;;
20697;SDS011;10508;50.956;4.640;2023-10-08T13:30:53;11.35;;;4.75;;
20697;SDS011;10508;50.956;4.640;2023-10-08T13:33:22;12.52;;;4.97;;
20697;SDS011;10508;50.956;4.640;2023-10-08T13:35:48;8.65;;;3.85;;
20697;SDS011;10508;50.956;4.640;2023-10-08T13:38:15;10.90;;;4.10;;
20697;SDS011;10508;50.956;4.640;2023-10-08T13:40:42;15.43;;;4.65;;
20697;SDS011;10508;50.956;4.640;2023-10-08T13:43:27;10.48;;;4.32;;
20697;SDS011;10508;50.956;4.640;2023-10-08T13:45:59;12.40;;;4.40;;
20697;SDS011;10508;50.956;4.640;2023-10-08T13:48:29;10.45;;;4.43;;
20697;SDS011;10508;50.956;4.640;2023-10-08T13:50:57;11.65;;;4.50;;
20697;SDS011;10508;50.956;4.640;2023-10-08T13:53:25;10.75;;;4.45;;
20697;SDS011;10508;50.956;4.640;2023-10-08T13:55:55;8.45;;;3.90;;
20697;SDS011;10508;50.956;4.640;2023-10-08T13:58:21;13.60;;;4.15;;
20697;SDS011;10508;50.956;4.640;2023-10-08T14:00:47;12.25;;;4.75;;
20697;SDS011;10508;50.956;4.640;2023-10-08T14:03:18;15.90;;;5.00;;
20697;SDS011;10508;50.956;4.640;2023-10-08T14:05:47;12.63;;;4.88;;
20697;SDS011;10508;50.956;4.640;2023-10-08T14:08:16;14.73;;;4.30;;
20697;SDS011;10508;50.956;4.640;2023-10-08T14:10:43;15.68;;;4.47;;
20697;SDS011;10508;50.956;4.640;2023-10-08T14:13:09;11.70;;;3.97;;
20697;SDS011;10508;50.956;4.640;2023-10-08T14:15:54;15.32;;;4.82;;
20697;SDS011;10508;50.956;4.640;2023-10-08T14:18:24;15.20;;;4.45;;
20697;SDS011;10508;50.956;4.640;2023-10-08T14:20:54;8.75;;;3.72;;
20697;SDS011;10508;50.956;4.640;2023-10-08T14:23:20;15.85;;;4.65;;
20697;SDS011;10508;50.956;4.640;2023-10-08T14:25:49;14.25;;;3.88;;
20697;SDS011;10508;50.956;4.640;2023-10-08T14:28:17;10.98;;;4.50;;
20697;SDS011;10508;50.956;4.640;2023-10-08T14:31:03;13.48;;;4.20;;
20697;SDS011;10508;50.956;4.640;2023-10-08T14:33:29;11.60;;;4.68;;
20697;SDS011;10508;50.956;4.640;2023-10-08T14:36:06;11.65;;;3.65;;
20697;SDS011;10508;50.956;4.640;2023-10-08T14:38:51;14.77;;;4.82;;
20697;SDS011;10508;50.956;4.640;2023-10-08T14:41:36;9.45;;;3.85;;
20697;SDS011;10508;50.956;4.640;2023-10-08T14:44:21;9.05;;;4.43;;
20697;SDS011;10508;50.956;4.640;2023-10-08T14:46:50;8.98;;;3.80;;
20697;SDS011;10508;50.956;4.640;2023-10-08T14:49:17;10.30;;;4.60;;
20697;SDS011;10508;50.956;4.640;2023-10-08T14:51:43;15.45;;;5.18;;
20697;SDS011;10508;50.956;4.640;2023-10-08T14:54:14;8.52;;;3.67;;
20697;SDS011;10508;50.956;4.640;2023-10-08T14:56:40;11.68;;;4.05;;
20697;SDS011;10508;50.956;4.640;2023-10-08T14:59:06;12.40;;;4.28;;
20697;SDS011;10508;50.956;4.640;2023-10-08T15:01:32;9.65;;;3.67;;
20697;SDS011;10508;50.956;4.640;2023-10-08T15:04:00;11.05;;;4.50;;
20697;SDS011;10508;50.956;4.640;2023-10-08T15:06:30;12.20;;;3.97;;
20697;SDS011;10508;50.956;4.640;2023-10-08T15:11:22;12.43;;;4.30;;
20697;SDS011;10508;50.956;4.640;2023-10-08T15:14:00;12.52;;;4.50;;
20697;SDS011;10508;50.956;4.640;2023-10-08T15:16:26;10.65;;;4.25;;
20697;SDS011;10508;50.956;4.640;2023-10-08T15:18:53;9.40;;;4.43;;
20697;SDS011;10508;50.956;4.640;2023-10-08T15:21:21;9.35;;;4.25;;
20697;SDS011;10508;50.956;4.640;2023-10-08T15:23:49;8.02;;;3.53;;
20697;SDS011;10508;50.956;4.640;2023-10-08T15:26:16;13.93;;;4.72;;